Tomah, WI

12:50 PM CST on January 20, 2017 (GMT -0600)
Tomah City Airport | | Change Station
Active Advisory: Special Statement

Elev 966 ft 43.97 °N, 90.49 °W | Updated 5 minutes ago

Fog
Fog
36.3 °F
Feels Like 36 °F
N
0.0
Wind Variable Wind from ESE

Today
High -- | Low -- °F
--% Chance of Precip.
Yesterday
High -- | Low -- °F
Precip. -- in
Pressure 29.66 in
Visibility 3.0 miles
Clouds Overcast 400 ft
Windchill 36 °F
Dew Point 36 °F
Humidity 99%
Rainfall 0.56 in
Snow Depth Not available.
7:30 AM 4:56 PM
Last Quarter, 42% visible
METAR KVOK 201758Z 12006KT 3SM BR OVC004 02/02 A2962 RMK AO2A SLP042 58010
Pressure 29.66 in
Visibility 3.0 miles
Clouds Overcast 400 ft
Windchill 36 °F
Dew Point 36 °F
Humidity 99%
Rainfall 0.56 in
Snow Depth Not available.
7:30 AM 4:56 PM
Last Quarter, 42% visible
METAR KVOK 201758Z 12006KT 3SM BR OVC004 02/02 A2962 RMK AO2A SLP042 58010

Get Your Daily Forecast Email!

Thanks for signing up!

Be on the lookout for a verification email in your inbox.

You'll start receiving the daily forecast at 8 AM.

×

10-Day Weather Forecast

Almanac

Astronomy

Jan. 20, 2017 Rise Set
Actual Time
Civil Twilight
Nautical Twilight
Astronomical Twilight
Moon
Length of Visible Light
Length of Day
Tomorrow will be .
, % of the Moon is Illuminated

Today's Extremes

State Highs State Lows

Community

WunderPhotos

Upload Photos

1,962,540 photos uploaded!

WunderBlog® & News

Nearby

Air Quality

  Air Quality AQ Index Pollutant
Not available.

Snow Depth

Station Depth Elevation

Earthquake Activity

City Distance Mag. Time & Date
Minimum magnitude displayed is 2.5.

Coastal Water Temperatures

Place Temperature

Stations

Nearby Weather Stations

Station Location Temp. Windchill Dew Point Humidity Wind Precip. Elev Updated Type
                   

Watches & Warnings

Special Statement
Issued: 12:16 PM CST Jan. 20, 2017 – National Weather Service

... Areas of dense fog into the afternoon...

Areas of dense fog will remain in place through the afternoon
hours, especially for locations along and west of the Mississippi
River and along ridge tops. If traveling, be alert for rapid
changes in visibility along your Route.


Lawrence

1216 PM CST Fri Jan 20 2017

... Areas of dense fog into the afternoon...

Areas of dense fog will remain in place through the afternoon
hours, especially for locations along and west of the Mississippi
River and along ridge tops. If traveling, be alert for rapid
changes in visibility along your Route.


Lawrence